sensor_id;sensor_type;location;lat;lon;timestamp;pressure;altitude;pressure_sealevel;temperature;humidity
68712;BME280;55690;51.566;19.198;2023-07-30T00:02:18;100876.59;;;20.26;100.00
68712;BME280;55690;51.566;19.198;2023-07-30T00:06:23;100890.20;;;20.20;100.00
68712;BME280;55690;51.566;19.198;2023-07-30T00:10:30;100885.89;;;20.09;100.00
68712;BME280;55690;51.566;19.198;2023-07-30T00:14:36;100878.31;;;20.11;100.00
68712;BME280;55690;51.566;19.198;2023-07-30T00:18:42;100885.55;;;20.20;100.00
68712;BME280;55690;51.566;19.198;2023-07-30T00:22:48;100899.68;;;20.17;100.00
68712;BME280;55690;51.566;19.198;2023-07-30T00:26:54;100899.34;;;20.20;100.00
68712;BME280;55690;51.566;19.198;2023-07-30T00:31:00;100895.88;;;20.10;100.00
68712;BME280;55690;51.566;19.198;2023-07-30T00:35:07;100902.77;;;20.06;100.00
68712;BME280;55690;51.566;19.198;2023-07-30T00:39:13;100900.88;;;20.15;100.00
68712;BME280;55690;51.566;19.198;2023-07-30T00:43:19;100915.54;;;20.15;100.00
68712;BME280;55690;51.566;19.198;2023-07-30T00:47:26;100914.64;;;19.99;100.00
68712;BME280;55690;51.566;19.198;2023-07-30T00:51:33;100922.93;;;19.90;100.00
68712;BME280;55690;51.566;19.198;2023-07-30T00:55:37;100915.84;;;19.96;100.00
68712;BME280;55690;51.566;19.198;2023-07-30T00:59:44;100917.05;;;19.93;100.00
68712;BME280;55690;51.566;19.198;2023-07-30T01:03:50;100916.55;;;19.90;100.00
68712;BME280;55690;51.566;19.198;2023-07-30T01:07:56;100915.68;;;19.98;100.00
68712;BME280;55690;51.566;19.198;2023-07-30T01:12:04;100913.61;;;20.00;100.00
68712;BME280;55690;51.566;19.198;2023-07-30T01:16:08;100904.98;;;19.94;100.00
68712;BME280;55690;51.566;19.198;2023-07-30T01:20:14;100921.20;;;19.89;100.00
68712;BME280;55690;51.566;19.198;2023-07-30T01:24:20;100916.89;;;19.87;100.00
68712;BME280;55690;51.566;19.198;2023-07-30T01:28:27;100926.00;;;19.79;100.00
68712;BME280;55690;51.566;19.198;2023-07-30T01:32:33;100924.44;;;19.77;100.00
68712;BME280;55690;51.566;19.198;2023-07-30T01:36:40;100928.06;;;19.77;100.00
68712;BME280;55690;51.566;19.198;2023-07-30T01:40:45;100930.26;;;19.66;100.00
68712;BME280;55690;51.566;19.198;2023-07-30T01:44:51;100940.59;;;19.64;100.00
68712;BME280;55690;51.566;19.198;2023-07-30T01:48:57;100941.11;;;19.67;100.00
68712;BME280;55690;51.566;19.198;2023-07-30T01:53:04;100941.30;;;19.74;100.00
68712;BME280;55690;51.566;19.198;2023-07-30T01:57:10;100949.38;;;19.67;100.00
68712;BME280;55690;51.566;19.198;2023-07-30T02:01:16;100945.89;;;19.57;100.00
68712;BME280;55690;51.566;19.198;2023-07-30T02:05:22;100944.04;;;19.66;100.00
68712;BME280;55690;51.566;19.198;2023-07-30T02:09:28;100945.40;;;19.62;100.00
68712;BME280;55690;51.566;19.198;2023-07-30T02:13:34;100952.52;;;19.38;100.00
68712;BME280;55690;51.566;19.198;2023-07-30T02:17:40;100950.83;;;19.45;100.00
68712;BME280;55690;51.566;19.198;2023-07-30T02:21:47;100951.57;;;19.55;100.00
68712;BME280;55690;51.566;19.198;2023-07-30T02:25:53;100959.09;;;19.45;100.00
68712;BME280;55690;51.566;19.198;2023-07-30T02:29:59;100954.94;;;19.41;100.00
68712;BME280;55690;51.566;19.198;2023-07-30T02:34:05;100954.62;;;19.44;100.00
68712;BME280;55690;51.566;19.198;2023-07-30T02:38:11;100967.70;;;19.50;100.00
68712;BME280;55690;51.566;19.198;2023-07-30T02:42:18;100962.63;;;19.64;100.00
68712;BME280;55690;51.566;19.198;2023-07-30T02:46:24;100969.52;;;19.68;100.00
68712;BME280;55690;51.566;19.198;2023-07-30T02:50:30;100962.69;;;19.80;100.00
68712;BME280;55690;51.566;19.198;2023-07-30T02:54:36;100960.96;;;19.79;100.00
68712;BME280;55690;51.566;19.198;2023-07-30T02:58:42;100974.26;;;19.91;100.00
68712;BME280;55690;51.566;19.198;2023-07-30T03:02:48;100968.55;;;19.93;100.00
68712;BME280;55690;51.566;19.198;2023-07-30T03:06:54;100970.63;;;19.99;100.00
68712;BME280;55690;51.566;19.198;2023-07-30T03:11:01;100974.38;;;19.74;100.00
68712;BME280;55690;51.566;19.198;2023-07-30T03:15:08;100977.46;;;19.71;100.00
68712;BME280;55690;51.566;19.198;2023-07-30T03:19:13;100983.55;;;19.48;100.00
68712;BME280;55690;51.566;19.198;2023-07-30T03:23:19;100978.91;;;19.49;100.00
68712;BME280;55690;51.566;19.198;2023-07-30T03:27:25;100989.30;;;19.29;100.00
68712;BME280;55690;51.566;19.198;2023-07-30T03:31:32;100997.14;;;18.90;100.00
68712;BME280;55690;51.566;19.198;2023-07-30T03:35:38;101006.79;;;19.20;100.00
68712;BME280;55690;51.566;19.198;2023-07-30T03:39:44;101014.81;;;18.62;100.00
68712;BME280;55690;51.566;19.198;2023-07-30T03:43:50;101012.56;;;19.09;100.00
68712;BME280;55690;51.566;19.198;2023-07-30T03:47:56;101021.75;;;18.91;100.00
68712;BME280;55690;51.566;19.198;2023-07-30T03:52:03;101025.11;;;19.03;100.00
68712;BME280;55690;51.566;19.198;2023-07-30T03:56:08;101026.33;;;19.09;100.00
68712;BME280;55690;51.566;19.198;2023-07-30T04:00:15;101030.78;;;19.02;100.00
68712;BME280;55690;51.566;19.198;2023-07-30T04:04:21;101029.53;;;18.96;100.00
68712;BME280;55690;51.566;19.198;2023-07-30T04:08:27;101029.37;;;18.98;100.00
68712;BME280;55690;51.566;19.198;2023-07-30T04:12:33;101030.10;;;19.08;100.00
68712;BME280;55690;51.566;19.198;2023-07-30T04:16:39;101019.96;;;19.08;100.00
68712;BME280;55690;51.566;19.198;2023-07-30T04:20:45;101035.34;;;19.19;100.00
68712;BME280;55690;51.566;19.198;2023-07-30T04:24:52;101045.71;;;19.25;100.00
68712;BME280;55690;51.566;19.198;2023-07-30T04:28:58;101048.14;;;19.28;100.00
68712;BME280;55690;51.566;19.198;2023-07-30T04:33:10;101056.73;;;18.99;100.00
68712;BME280;55690;51.566;19.198;2023-07-30T04:37:17;101048.85;;;19.30;100.00
68712;BME280;55690;51.566;19.198;2023-07-30T04:41:19;101066.49;;;19.19;100.00
68712;BME280;55690;51.566;19.198;2023-07-30T04:45:22;101066.01;;;19.24;100.00
68712;BME280;55690;51.566;19.198;2023-07-30T04:49:29;101066.29;;;19.39;100.00
68712;BME280;55690;51.566;19.198;2023-07-30T04:53:35;101078.17;;;19.39;100.00
68712;BME280;55690;51.566;19.198;2023-07-30T04:57:41;101077.69;;;19.44;100.00
68712;BME280;55690;51.566;19.198;2023-07-30T05:01:47;101076.06;;;19.33;100.00
68712;BME280;55690;51.566;19.198;2023-07-30T05:05:53;101090.53;;;19.35;100.00
68712;BME280;55690;51.566;19.198;2023-07-30T05:09:59;101091.84;;;19.49;100.00
68712;BME280;55690;51.566;19.198;2023-07-30T05:14:09;101085.62;;;19.47;100.00
68712;BME280;55690;51.566;19.198;2023-07-30T05:18:17;101089.28;;;19.30;100.00
68712;BME280;55690;51.566;19.198;2023-07-30T05:22:20;101094.75;;;19.47;100.00
68712;BME280;55690;51.566;19.198;2023-07-30T05:30:36;101090.31;;;19.28;100.00
68712;BME280;55690;51.566;19.198;2023-07-30T05:34:41;101095.41;;;19.41;100.00
68712;BME280;55690;51.566;19.198;2023-07-30T05:38:49;101087.03;;;19.51;100.00
68712;BME280;55690;51.566;19.198;2023-07-30T05:42:57;101084.48;;;19.57;100.00
68712;BME280;55690;51.566;19.198;2023-07-30T05:47:01;101085.20;;;19.59;100.00
68712;BME280;55690;51.566;19.198;2023-07-30T05:51:03;101093.18;;;19.71;100.00
68712;BME280;55690;51.566;19.198;2023-07-30T05:55:08;101096.31;;;19.76;100.00
68712;BME280;55690;51.566;19.198;2023-07-30T05:59:13;101090.59;;;19.69;100.00
68712;BME280;55690;51.566;19.198;2023-07-30T06:07:54;101094.52;;;20.01;100.00
68712;BME280;55690;51.566;19.198;2023-07-30T06:12:17;101089.33;;;19.89;100.00
68712;BME280;55690;51.566;19.198;2023-07-30T06:16:21;101081.02;;;19.81;100.00
68712;BME280;55690;51.566;19.198;2023-07-30T06:20:22;101071.61;;;20.00;100.00
68712;BME280;55690;51.566;19.198;2023-07-30T06:24:24;101087.68;;;20.13;100.00
68712;BME280;55690;51.566;19.198;2023-07-30T06:28:25;101094.19;;;20.04;100.00
68712;BME280;55690;51.566;19.198;2023-07-30T06:32:27;101093.73;;;20.16;100.00
68712;BME280;55690;51.566;19.198;2023-07-30T06:36:29;101083.93;;;20.22;100.00
68712;BME280;55690;51.566;19.198;2023-07-30T06:40:30;101088.27;;;20.33;100.00
68712;BME280;55690;51.566;19.198;2023-07-30T06:44:35;101098.66;;;20.47;100.00
68712;BME280;55690;51.566;19.198;2023-07-30T06:48:36;101104.90;;;20.57;100.00
68712;BME280;55690;51.566;19.198;2023-07-30T06:52:38;101102.48;;;20.54;100.00
68712;BME280;55690;51.566;19.198;2023-07-30T06:56:40;101105.78;;;20.82;100.00
68712;BME280;55690;51.566;19.198;2023-07-30T07:00:46;101120.12;;;20.93;100.00
68712;BME280;55690;51.566;19.198;2023-07-30T07:04:53;101117.36;;;20.93;100.00
68712;BME280;55690;51.566;19.198;2023-07-30T07:09:01;101125.64;;;20.93;100.00
68712;BME280;55690;51.566;19.198;2023-07-30T07:13:04;101132.73;;;21.04;100.00
68712;BME280;55690;51.566;19.198;2023-07-30T07:17:10;101141.87;;;20.97;100.00
68712;BME280;55690;51.566;19.198;2023-07-30T07:21:20;101125.99;;;20.99;100.00
68712;BME280;55690;51.566;19.198;2023-07-30T07:25:23;101130.70;;;21.22;100.00
68712;BME280;55690;51.566;19.198;2023-07-30T07:29:29;101129.76;;;20.81;100.00
68712;BME280;55690;51.566;19.198;2023-07-30T07:33:35;101127.16;;;20.80;100.00
68712;BME280;55690;51.566;19.198;2023-07-30T07:37:41;101134.28;;;20.99;100.00
68712;BME280;55690;51.566;19.198;2023-07-30T07:41:47;101138.77;;;21.08;100.00
68712;BME280;55690;51.566;19.198;2023-07-30T07:45:54;101123.94;;;21.25;100.00
68712;BME280;55690;51.566;19.198;2023-07-30T07:50:00;101112.03;;;21.33;100.00
68712;BME280;55690;51.566;19.198;2023-07-30T07:54:06;101111.98;;;21.65;100.00
68712;BME280;55690;51.566;19.198;2023-07-30T07:58:12;101109.64;;;21.93;100.00
68712;BME280;55690;51.566;19.198;2023-07-30T08:02:18;101112.32;;;22.17;100.00
68712;BME280;55690;51.566;19.198;2023-07-30T08:06:24;101111.54;;;22.40;100.00
68712;BME280;55690;51.566;19.198;2023-07-30T08:10:30;101112.66;;;22.84;100.00
68712;BME280;55690;51.566;19.198;2023-07-30T08:14:37;101106.64;;;22.73;98.74
68712;BME280;55690;51.566;19.198;2023-07-30T08:18:43;101110.73;;;23.08;100.00
68712;BME280;55690;51.566;19.198;2023-07-30T08:22:49;101110.30;;;23.19;100.00
68712;BME280;55690;51.566;19.198;2023-07-30T08:26:55;101119.40;;;23.28;99.84
68712;BME280;55690;51.566;19.198;2023-07-30T08:31:01;101125.42;;;23.69;100.00
68712;BME280;55690;51.566;19.198;2023-07-30T08:35:09;101131.56;;;23.79;95.57
68712;BME280;55690;51.566;19.198;2023-07-30T08:39:18;101130.60;;;24.01;94.31
68712;BME280;55690;51.566;19.198;2023-07-30T08:43:25;101134.80;;;23.97;94.71
68712;BME280;55690;51.566;19.198;2023-07-30T08:47:28;101138.82;;;24.39;94.32
68712;BME280;55690;51.566;19.198;2023-07-30T08:51:36;101138.49;;;24.63;93.56
68712;BME280;55690;51.566;19.198;2023-07-30T08:56:04;101141.93;;;25.01;94.83
68712;BME280;55690;51.566;19.198;2023-07-30T09:00:08;101133.88;;;24.92;91.08
68712;BME280;55690;51.566;19.198;2023-07-30T09:04:21;101136.96;;;24.97;93.24
68712;BME280;55690;51.566;19.198;2023-07-30T09:08:38;101133.75;;;24.28;91.26
68712;BME280;55690;51.566;19.198;2023-07-30T09:17:35;101123.42;;;24.21;89.14
68712;BME280;55690;51.566;19.198;2023-07-30T09:21:44;101114.44;;;24.92;90.88
68712;BME280;55690;51.566;19.198;2023-07-30T09:26:00;101110.38;;;25.09;88.90
68712;BME280;55690;51.566;19.198;2023-07-30T09:34:51;101109.34;;;25.38;86.92
68712;BME280;55690;51.566;19.198;2023-07-30T09:43:21;101111.84;;;26.23;86.58
68712;BME280;55690;51.566;19.198;2023-07-30T09:47:40;101102.77;;;26.56;87.25
68712;BME280;55690;51.566;19.198;2023-07-30T09:51:47;101094.07;;;26.78;85.32
68712;BME280;55690;51.566;19.198;2023-07-30T09:55:49;101088.07;;;26.81;81.86
68712;BME280;55690;51.566;19.198;2023-07-30T09:59:54;101084.64;;;26.93;81.89
68712;BME280;55690;51.566;19.198;2023-07-30T10:04:07;101077.83;;;27.02;81.97
68712;BME280;55690;51.566;19.198;2023-07-30T10:08:19;101077.19;;;27.00;85.84
68712;BME280;55690;51.566;19.198;2023-07-30T10:12:33;101069.44;;;26.95;80.05
68712;BME280;55690;51.566;19.198;2023-07-30T10:21:02;101070.97;;;27.37;76.62
68712;BME280;55690;51.566;19.198;2023-07-30T10:25:12;101058.54;;;27.60;78.19
68712;BME280;55690;51.566;19.198;2023-07-30T10:29:21;101060.46;;;27.59;76.37
68712;BME280;55690;51.566;19.198;2023-07-30T10:37:47;101055.88;;;27.91;75.82
68712;BME280;55690;51.566;19.198;2023-07-30T10:41:55;101046.88;;;27.82;76.33
68712;BME280;55690;51.566;19.198;2023-07-30T10:46:14;101044.07;;;27.89;72.11
68712;BME280;55690;51.566;19.198;2023-07-30T10:50:25;101053.02;;;28.11;71.94
68712;BME280;55690;51.566;19.198;2023-07-30T10:54:33;101051.90;;;28.25;72.72
68712;BME280;55690;51.566;19.198;2023-07-30T10:58:36;101047.88;;;28.08;71.06
68712;BME280;55690;51.566;19.198;2023-07-30T11:02:39;101043.62;;;28.50;72.74
68712;BME280;55690;51.566;19.198;2023-07-30T11:10:56;101047.83;;;28.21;70.63
68712;BME280;55690;51.566;19.198;2023-07-30T11:15:10;101047.67;;;28.54;70.32
68712;BME280;55690;51.566;19.198;2023-07-30T11:23:28;101050.81;;;28.26;70.64
68712;BME280;55690;51.566;19.198;2023-07-30T11:31:48;101033.33;;;28.82;68.88
68712;BME280;55690;51.566;19.198;2023-07-30T11:35:53;101039.22;;;28.99;69.64
68712;BME280;55690;51.566;19.198;2023-07-30T11:40:11;101029.51;;;29.26;66.00
68712;BME280;55690;51.566;19.198;2023-07-30T11:48:33;101036.07;;;28.89;68.92
68712;BME280;55690;51.566;19.198;2023-07-30T11:52:53;101029.38;;;28.58;68.24
68712;BME280;55690;51.566;19.198;2023-07-30T11:57:06;101040.18;;;27.97;68.29
68712;BME280;55690;51.566;19.198;2023-07-30T12:01:13;101050.46;;;28.03;75.39
68712;BME280;55690;51.566;19.198;2023-07-30T12:05:32;101056.29;;;27.95;72.68
68712;BME280;55690;51.566;19.198;2023-07-30T12:09:35;101045.44;;;27.67;72.12
68712;BME280;55690;51.566;19.198;2023-07-30T12:13:46;101045.65;;;27.72;73.18
68712;BME280;55690;51.566;19.198;2023-07-30T12:17:55;101043.71;;;27.72;73.40
68712;BME280;55690;51.566;19.198;2023-07-30T12:22:02;101042.41;;;27.55;69.94
68712;BME280;55690;51.566;19.198;2023-07-30T12:26:07;101044.15;;;27.69;72.98
68712;BME280;55690;51.566;19.198;2023-07-30T12:30:30;101049.06;;;27.54;75.74
68712;BME280;55690;51.566;19.198;2023-07-30T12:34:36;101052.30;;;27.64;75.03
68712;BME280;55690;51.566;19.198;2023-07-30T12:42:58;101030.78;;;27.78;70.04
68712;BME280;55690;51.566;19.198;2023-07-30T12:47:05;101032.90;;;27.89;71.11
68712;BME280;55690;51.566;19.198;2023-07-30T12:51:11;101032.42;;;28.05;71.30
68712;BME280;55690;51.566;19.198;2023-07-30T12:55:34;101030.61;;;28.31;69.42
68712;BME280;55690;51.566;19.198;2023-07-30T12:59:52;101015.66;;;28.05;66.69
68712;BME280;55690;51.566;19.198;2023-07-30T13:04:10;101011.38;;;28.03;67.76
68712;BME280;55690;51.566;19.198;2023-07-30T13:08:30;101008.18;;;28.75;66.88
68712;BME280;55690;51.566;19.198;2023-07-30T13:12:36;101007.03;;;28.58;68.64
68712;BME280;55690;51.566;19.198;2023-07-30T13:16:39;100994.14;;;28.89;66.74
68712;BME280;55690;51.566;19.198;2023-07-30T13:20:47;101002.34;;;28.84;68.88
68712;BME280;55690;51.566;19.198;2023-07-30T13:24:58;100993.84;;;28.65;65.94
68712;BME280;55690;51.566;19.198;2023-07-30T13:29:07;101002.18;;;28.72;68.53
68712;BME280;55690;51.566;19.198;2023-07-30T13:33:25;100986.23;;;29.04;64.09
68712;BME280;55690;51.566;19.198;2023-07-30T13:37:42;100984.98;;;29.25;61.55
68712;BME280;55690;51.566;19.198;2023-07-30T13:41:54;100989.40;;;28.89;62.56
68712;BME280;55690;51.566;19.198;2023-07-30T13:50:33;100991.30;;;28.95;65.53
68712;BME280;55690;51.566;19.198;2023-07-30T13:54:55;100993.45;;;28.93;67.68
68712;BME280;55690;51.566;19.198;2023-07-30T13:59:12;100994.66;;;28.72;65.39
68712;BME280;55690;51.566;19.198;2023-07-30T14:07:44;100994.93;;;28.33;69.09
68712;BME280;55690;51.566;19.198;2023-07-30T14:11:50;100988.52;;;28.19;68.56
68712;BME280;55690;51.566;19.198;2023-07-30T14:20:17;100992.63;;;27.72;72.88
68712;BME280;55690;51.566;19.198;2023-07-30T14:24:36;100985.77;;;27.68;71.60
68712;BME280;55690;51.566;19.198;2023-07-30T14:29:04;100982.78;;;27.43;74.39
68712;BME280;55690;51.566;19.198;2023-07-30T14:41:53;100991.00;;;27.05;76.13
68712;BME280;55690;51.566;19.198;2023-07-30T14:46:09;100987.34;;;26.84;78.17
68712;BME280;55690;51.566;19.198;2023-07-30T14:55:10;100969.33;;;26.80;76.23
68712;BME280;55690;51.566;19.198;2023-07-30T14:59:19;100960.73;;;26.89;74.73
68712;BME280;55690;51.566;19.198;2023-07-30T15:16:47;100976.84;;;27.00;69.48
68712;BME280;55690;51.566;19.198;2023-07-30T15:25:24;100974.88;;;26.61;70.47
68712;BME280;55690;51.566;19.198;2023-07-30T15:34:08;100970.35;;;26.46;72.07
68712;BME280;55690;51.566;19.198;2023-07-30T15:38:26;100974.23;;;26.39;72.23
68712;BME280;55690;51.566;19.198;2023-07-30T15:42:48;100979.78;;;26.32;73.40
68712;BME280;55690;51.566;19.198;2023-07-30T15:47:01;100974.10;;;26.12;74.12
68712;BME280;55690;51.566;19.198;2023-07-30T15:51:06;100977.77;;;26.19;72.51
68712;BME280;55690;51.566;19.198;2023-07-30T15:55:15;101000.04;;;26.19;72.84
68712;BME280;55690;51.566;19.198;2023-07-30T15:59:23;100995.72;;;26.10;72.69
68712;BME280;55690;51.566;19.198;2023-07-30T16:03:31;100998.98;;;26.21;73.90
68712;BME280;55690;51.566;19.198;2023-07-30T16:07:54;101000.46;;;26.16;72.88
68712;BME280;55690;51.566;19.198;2023-07-30T16:12:09;101004.04;;;26.04;75.17
68712;BME280;55690;51.566;19.198;2023-07-30T16:16:23;101007.86;;;25.90;75.01
68712;BME280;55690;51.566;19.198;2023-07-30T16:20:36;101000.55;;;25.82;75.11
68712;BME280;55690;51.566;19.198;2023-07-30T16:24:42;101005.87;;;25.77;76.81
68712;BME280;55690;51.566;19.198;2023-07-30T16:31:04;101002.39;;;25.68;77.41
68712;BME280;55690;51.566;19.198;2023-07-30T16:35:18;101015.16;;;25.63;78.46
68712;BME280;55690;51.566;19.198;2023-07-30T16:39:25;101013.13;;;25.43;76.18
68712;BME280;55690;51.566;19.198;2023-07-30T16:47:48;101024.16;;;25.30;75.86
68712;BME280;55690;51.566;19.198;2023-07-30T17:00:35;101053.42;;;24.98;76.02
68712;BME280;55690;51.566;19.198;2023-07-30T17:04:51;101058.47;;;24.95;76.73
68712;BME280;55690;51.566;19.198;2023-07-30T17:08:58;101047.63;;;24.78;76.58
68712;BME280;55690;51.566;19.198;2023-07-30T17:13:05;101052.39;;;24.84;76.40
68712;BME280;55690;51.566;19.198;2023-07-30T17:17:18;101055.68;;;24.73;78.50
68712;BME280;55690;51.566;19.198;2023-07-30T17:21:23;101065.08;;;24.51;77.97
68712;BME280;55690;51.566;19.198;2023-07-30T17:25:37;101066.45;;;24.40;77.93
68712;BME280;55690;51.566;19.198;2023-07-30T17:29:43;101069.45;;;24.24;77.97
68712;BME280;55690;51.566;19.198;2023-07-30T17:33:45;101056.73;;;24.15;77.66
68712;BME280;55690;51.566;19.198;2023-07-30T17:37:48;101038.47;;;24.06;78.23
68712;BME280;55690;51.566;19.198;2023-07-30T17:41:50;101037.98;;;24.17;77.08
68712;BME280;55690;51.566;19.198;2023-07-30T17:45:54;101034.05;;;24.11;77.66
68712;BME280;55690;51.566;19.198;2023-07-30T17:49:59;101019.16;;;23.98;74.77
68712;BME280;55690;51.566;19.198;2023-07-30T17:54:22;101024.51;;;23.99;75.18
68712;BME280;55690;51.566;19.198;2023-07-30T17:58:36;101021.69;;;23.78;76.08
68712;BME280;55690;51.566;19.198;2023-07-30T18:02:38;101019.39;;;23.67;75.56
68712;BME280;55690;51.566;19.198;2023-07-30T18:06:44;101037.18;;;23.58;77.31
68712;BME280;55690;51.566;19.198;2023-07-30T18:15:18;101031.87;;;23.48;80.28
68712;BME280;55690;51.566;19.198;2023-07-30T18:19:23;101040.00;;;23.35;77.82
68712;BME280;55690;51.566;19.198;2023-07-30T18:23:27;101044.46;;;23.21;76.50
68712;BME280;55690;51.566;19.198;2023-07-30T18:27:31;101066.03;;;23.11;78.55
68712;BME280;55690;51.566;19.198;2023-07-30T18:31:33;101068.66;;;22.89;80.42
68712;BME280;55690;51.566;19.198;2023-07-30T18:35:35;101073.22;;;22.82;81.09
68712;BME280;55690;51.566;19.198;2023-07-30T18:39:40;101078.77;;;22.74;82.33
68712;BME280;55690;51.566;19.198;2023-07-30T18:43:42;101085.95;;;22.61;85.39
68712;BME280;55690;51.566;19.198;2023-07-30T18:52:04;101103.95;;;22.34;82.90
68712;BME280;55690;51.566;19.198;2023-07-30T18:56:06;101105.71;;;22.27;82.84
68712;BME280;55690;51.566;19.198;2023-07-30T19:00:08;101110.06;;;22.21;82.91
68712;BME280;55690;51.566;19.198;2023-07-30T19:04:11;101111.88;;;22.06;81.99
68712;BME280;55690;51.566;19.198;2023-07-30T19:08:12;101118.80;;;22.02;83.13
68712;BME280;55690;51.566;19.198;2023-07-30T19:12:14;101114.49;;;21.91;82.79
68712;BME280;55690;51.566;19.198;2023-07-30T19:16:15;101115.55;;;21.82;84.77
68712;BME280;55690;51.566;19.198;2023-07-30T19:20:17;101118.33;;;21.74;85.76
68712;BME280;55690;51.566;19.198;2023-07-30T19:24:18;101122.84;;;21.67;85.98
68712;BME280;55690;51.566;19.198;2023-07-30T19:28:21;101127.02;;;21.54;83.63
68712;BME280;55690;51.566;19.198;2023-07-30T19:32:24;101134.98;;;21.41;85.32
68712;BME280;55690;51.566;19.198;2023-07-30T19:36:25;101148.28;;;21.30;87.12
68712;BME280;55690;51.566;19.198;2023-07-30T19:40:27;101139.47;;;21.34;86.75
68712;BME280;55690;51.566;19.198;2023-07-30T19:44:29;101138.61;;;21.34;87.05
68712;BME280;55690;51.566;19.198;2023-07-30T19:48:30;101135.84;;;21.25;86.40
68712;BME280;55690;51.566;19.198;2023-07-30T19:52:32;101143.65;;;21.22;86.92
68712;BME280;55690;51.566;19.198;2023-07-30T19:56:34;101149.48;;;21.19;86.82
68712;BME280;55690;51.566;19.198;2023-07-30T20:00:35;101136.40;;;21.21;87.81
68712;BME280;55690;51.566;19.198;2023-07-30T20:04:38;101141.02;;;21.20;88.98
68712;BME280;55690;51.566;19.198;2023-07-30T20:08:39;101133.25;;;21.16;89.40
68712;BME280;55690;51.566;19.198;2023-07-30T20:12:41;101130.84;;;21.13;89.22
68712;BME280;55690;51.566;19.198;2023-07-30T20:16:42;101132.55;;;21.06;88.98
68712;BME280;55690;51.566;19.198;2023-07-30T20:20:48;101142.38;;;21.00;90.77
68712;BME280;55690;51.566;19.198;2023-07-30T20:24:54;101138.95;;;21.06;89.53
68712;BME280;55690;51.566;19.198;2023-07-30T20:29:00;101151.02;;;20.97;90.24
68712;BME280;55690;51.566;19.198;2023-07-30T20:33:06;101148.41;;;20.96;89.47
68712;BME280;55690;51.566;19.198;2023-07-30T20:37:12;101153.41;;;20.92;88.67
68712;BME280;55690;51.566;19.198;2023-07-30T20:41:18;101146.86;;;20.93;89.90
68712;BME280;55690;51.566;19.198;2023-07-30T20:45:24;101146.16;;;20.83;90.10
68712;BME280;55690;51.566;19.198;2023-07-30T20:49:31;101134.43;;;20.73;90.08
68712;BME280;55690;51.566;19.198;2023-07-30T20:53:37;101137.51;;;20.62;91.01
68712;BME280;55690;51.566;19.198;2023-07-30T20:57:43;101147.67;;;20.61;90.44
68712;BME280;55690;51.566;19.198;2023-07-30T21:01:49;101137.48;;;20.53;90.75
68712;BME280;55690;51.566;19.198;2023-07-30T21:05:55;101140.91;;;20.47;91.17
68712;BME280;55690;51.566;19.198;2023-07-30T21:10:02;101136.79;;;20.51;89.32
68712;BME280;55690;51.566;19.198;2023-07-30T21:14:08;101136.95;;;20.50;90.01
68712;BME280;55690;51.566;19.198;2023-07-30T21:18:14;101137.32;;;20.55;90.99
68712;BME280;55690;51.566;19.198;2023-07-30T21:22:20;101135.92;;;20.51;91.23
68712;BME280;55690;51.566;19.198;2023-07-30T21:26:26;101130.73;;;20.48;92.95
68712;BME280;55690;51.566;19.198;2023-07-30T21:30:32;101139.71;;;20.50;91.89
68712;BME280;55690;51.566;19.198;2023-07-30T21:34:38;101145.92;;;20.52;91.72
68712;BME280;55690;51.566;19.198;2023-07-30T21:38:45;101142.90;;;20.29;91.37
68712;BME280;55690;51.566;19.198;2023-07-30T21:42:51;101143.06;;;20.28;91.99
68712;BME280;55690;51.566;19.198;2023-07-30T21:46:57;101146.16;;;20.24;93.13
68712;BME280;55690;51.566;19.198;2023-07-30T21:51:03;101150.31;;;20.29;92.12
68712;BME280;55690;51.566;19.198;2023-07-30T21:55:09;101143.23;;;20.26;91.53
68712;BME280;55690;51.566;19.198;2023-07-30T21:59:15;101142.54;;;20.24;91.80
68712;BME280;55690;51.566;19.198;2023-07-30T22:03:22;101140.48;;;20.26;92.80
68712;BME280;55690;51.566;19.198;2023-07-30T22:07:28;101146.70;;;20.28;93.10
68712;BME280;55690;51.566;19.198;2023-07-30T22:11:34;101139.25;;;20.20;92.14
68712;BME280;55690;51.566;19.198;2023-07-30T22:15:40;101139.77;;;20.24;92.53
68712;BME280;55690;51.566;19.198;2023-07-30T22:19:46;101122.66;;;20.12;92.54
68712;BME280;55690;51.566;19.198;2023-07-30T22:23:52;101130.60;;;20.15;93.51
68712;BME280;55690;51.566;19.198;2023-07-30T22:27:58;101139.91;;;20.14;94.00
68712;BME280;55690;51.566;19.198;2023-07-30T22:32:05;101143.36;;;20.16;92.96
68712;BME280;55690;51.566;19.198;2023-07-30T22:36:11;101144.71;;;20.12;94.26
68712;BME280;55690;51.566;19.198;2023-07-30T22:40:17;101140.40;;;20.10;95.03
68712;BME280;55690;51.566;19.198;2023-07-30T22:44:23;101150.23;;;20.12;93.81
68712;BME280;55690;51.566;19.198;2023-07-30T22:48:29;101151.59;;;20.08;94.06
68712;BME280;55690;51.566;19.198;2023-07-30T22:52:35;101150.57;;;20.09;93.87
68712;BME280;55690;51.566;19.198;2023-07-30T22:56:42;101148.66;;;20.10;93.39
68712;BME280;55690;51.566;19.198;2023-07-30T23:00:48;101157.10;;;20.08;96.05
68712;BME280;55690;51.566;19.198;2023-07-30T23:04:54;101159.86;;;20.08;96.24
68712;BME280;55690;51.566;19.198;2023-07-30T23:09:00;101158.66;;;20.11;95.95
68712;BME280;55690;51.566;19.198;2023-07-30T23:13:06;101149.00;;;20.07;96.48